sensor_id;sensor_type;location;lat;lon;timestamp;temperature;humidity
9849;DHT22;4963;51.444;6.528;2023-02-11T00:01:58;6.30;99.90
9849;DHT22;4963;51.444;6.528;2023-02-11T00:04:26;6.30;99.90
9849;DHT22;4963;51.444;6.528;2023-02-11T00:06:53;6.30;99.90
9849;DHT22;4963;51.444;6.528;2023-02-11T00:09:20;6.30;99.90
9849;DHT22;4963;51.444;6.528;2023-02-11T00:11:47;6.30;99.90
9849;DHT22;4963;51.444;6.528;2023-02-11T00:14:14;6.30;99.90
9849;DHT22;4963;51.444;6.528;2023-02-11T00:16:41;6.40;99.90
9849;DHT22;4963;51.444;6.528;2023-02-11T00:19:08;6.20;99.90
9849;DHT22;4963;51.444;6.528;2023-02-11T00:21:36;6.30;99.90
9849;DHT22;4963;51.444;6.528;2023-02-11T00:24:04;6.30;99.90
9849;DHT22;4963;51.444;6.528;2023-02-11T00:26:32;6.30;99.90
9849;DHT22;4963;51.444;6.528;2023-02-11T00:29:00;6.20;99.90
9849;DHT22;4963;51.444;6.528;2023-02-11T00:31:27;6.40;99.90
9849;DHT22;4963;51.444;6.528;2023-02-11T00:33:54;6.30;99.90
9849;DHT22;4963;51.444;6.528;2023-02-11T00:36:22;6.50;99.90
9849;DHT22;4963;51.444;6.528;2023-02-11T00:38:53;6.30;99.90
9849;DHT22;4963;51.444;6.528;2023-02-11T00:41:20;6.40;99.90
9849;DHT22;4963;51.444;6.528;2023-02-11T00:43:47;6.40;99.90
9849;DHT22;4963;51.444;6.528;2023-02-11T00:46:15;6.30;99.90
9849;DHT22;4963;51.444;6.528;2023-02-11T00:48:42;6.30;99.90
9849;DHT22;4963;51.444;6.528;2023-02-11T00:51:09;6.40;99.90
9849;DHT22;4963;51.444;6.528;2023-02-11T00:53:36;6.30;99.90
9849;DHT22;4963;51.444;6.528;2023-02-11T00:56:06;6.30;99.90
9849;DHT22;4963;51.444;6.528;2023-02-11T00:58:32;6.30;99.90
9849;DHT22;4963;51.444;6.528;2023-02-11T01:00:59;6.50;99.90
9849;DHT22;4963;51.444;6.528;2023-02-11T01:03:26;6.40;99.90
9849;DHT22;4963;51.444;6.528;2023-02-11T01:05:54;6.40;99.90
9849;DHT22;4963;51.444;6.528;2023-02-11T01:08:21;6.40;99.90
9849;DHT22;4963;51.444;6.528;2023-02-11T01:10:53;6.40;99.90
9849;DHT22;4963;51.444;6.528;2023-02-11T01:13:23;6.40;99.90
9849;DHT22;4963;51.444;6.528;2023-02-11T01:15:50;6.20;99.90
9849;DHT22;4963;51.444;6.528;2023-02-11T01:18:17;6.30;99.90
9849;DHT22;4963;51.444;6.528;2023-02-11T01:20:44;6.30;99.90
9849;DHT22;4963;51.444;6.528;2023-02-11T01:23:11;6.50;99.90
9849;DHT22;4963;51.444;6.528;2023-02-11T01:25:38;6.40;99.90
9849;DHT22;4963;51.444;6.528;2023-02-11T01:28:05;6.40;99.90
9849;DHT22;4963;51.444;6.528;2023-02-11T01:30:34;6.40;99.90
9849;DHT22;4963;51.444;6.528;2023-02-11T01:33:01;6.30;99.90
9849;DHT22;4963;51.444;6.528;2023-02-11T01:35:27;6.30;99.90
9849;DHT22;4963;51.444;6.528;2023-02-11T01:37:54;6.40;99.90
9849;DHT22;4963;51.444;6.528;2023-02-11T01:40:21;6.40;99.90
9849;DHT22;4963;51.444;6.528;2023-02-11T01:42:48;6.30;99.90
9849;DHT22;4963;51.444;6.528;2023-02-11T01:48:25;6.40;99.90
9849;DHT22;4963;51.444;6.528;2023-02-11T01:50:58;6.40;99.90
9849;DHT22;4963;51.444;6.528;2023-02-11T01:53:28;6.30;99.90
9849;DHT22;4963;51.444;6.528;2023-02-11T01:56:13;6.30;99.90
9849;DHT22;4963;51.444;6.528;2023-02-11T01:59:03;6.30;99.90
9849;DHT22;4963;51.444;6.528;2023-02-11T02:01:33;6.30;99.90
9849;DHT22;4963;51.444;6.528;2023-02-11T02:04:02;6.30;99.90
9849;DHT22;4963;51.444;6.528;2023-02-11T02:06:34;6.40;99.90
9849;DHT22;4963;51.444;6.528;2023-02-11T02:09:04;6.30;99.90
9849;DHT22;4963;51.444;6.528;2023-02-11T02:11:33;6.90;99.90
9849;DHT22;4963;51.444;6.528;2023-02-11T02:14:00;6.30;99.90
9849;DHT22;4963;51.444;6.528;2023-02-11T02:16:30;6.30;99.90
9849;DHT22;4963;51.444;6.528;2023-02-11T02:19:12;6.10;99.90
9849;DHT22;4963;51.444;6.528;2023-02-11T02:25:03;6.30;99.90
9849;DHT22;4963;51.444;6.528;2023-02-11T02:27:44;6.30;99.90
9849;DHT22;4963;51.444;6.528;2023-02-11T02:30:32;6.30;99.90
9849;DHT22;4963;51.444;6.528;2023-02-11T02:36:11;6.20;99.90
9849;DHT22;4963;51.444;6.528;2023-02-11T02:38:45;6.30;99.90
9849;DHT22;4963;51.444;6.528;2023-02-11T02:41:15;6.30;99.90
9849;DHT22;4963;51.444;6.528;2023-02-11T02:43:44;6.30;99.90
9849;DHT22;4963;51.444;6.528;2023-02-11T02:46:14;6.30;99.90
9849;DHT22;4963;51.444;6.528;2023-02-11T02:48:43;6.20;99.90
9849;DHT22;4963;51.444;6.528;2023-02-11T02:51:24;6.30;99.90
9849;DHT22;4963;51.444;6.528;2023-02-11T02:54:00;6.20;99.90
9849;DHT22;4963;51.444;6.528;2023-02-11T02:56:36;6.30;99.90
9849;DHT22;4963;51.444;6.528;2023-02-11T02:59:17;6.20;99.90
9849;DHT22;4963;51.444;6.528;2023-02-11T03:01:54;6.30;99.90
9849;DHT22;4963;51.444;6.528;2023-02-11T03:04:30;6.30;99.90
9849;DHT22;4963;51.444;6.528;2023-02-11T03:07:07;6.10;99.90
9849;DHT22;4963;51.444;6.528;2023-02-11T03:09:41;6.20;99.90
9849;DHT22;4963;51.444;6.528;2023-02-11T03:12:11;6.20;99.90
9849;DHT22;4963;51.444;6.528;2023-02-11T03:14:40;6.10;99.90
9849;DHT22;4963;51.444;6.528;2023-02-11T03:17:08;6.60;99.90
9849;DHT22;4963;51.444;6.528;2023-02-11T03:19:38;6.10;99.90
9849;DHT22;4963;51.444;6.528;2023-02-11T03:22:10;6.40;99.90
9849;DHT22;4963;51.444;6.528;2023-02-11T03:24:39;6.20;99.90
9849;DHT22;4963;51.444;6.528;2023-02-11T03:27:11;6.30;99.90
9849;DHT22;4963;51.444;6.528;2023-02-11T03:29:45;6.20;99.90
9849;DHT22;4963;51.444;6.528;2023-02-11T03:32:19;6.20;99.90
9849;DHT22;4963;51.444;6.528;2023-02-11T03:34:54;6.20;99.90
9849;DHT22;4963;51.444;6.528;2023-02-11T03:37:26;6.20;99.90
9849;DHT22;4963;51.444;6.528;2023-02-11T03:39:58;6.20;99.90
9849;DHT22;4963;51.444;6.528;2023-02-11T03:42:30;6.20;99.90
9849;DHT22;4963;51.444;6.528;2023-02-11T03:45:02;6.50;99.90
9849;DHT22;4963;51.444;6.528;2023-02-11T03:47:32;6.30;99.90
9849;DHT22;4963;51.444;6.528;2023-02-11T03:50:05;6.30;99.90
9849;DHT22;4963;51.444;6.528;2023-02-11T03:52:33;6.20;99.90
9849;DHT22;4963;51.444;6.528;2023-02-11T03:55:06;6.20;99.90
9849;DHT22;4963;51.444;6.528;2023-02-11T03:57:34;6.20;99.90
9849;DHT22;4963;51.444;6.528;2023-02-11T04:00:00;6.20;99.90
9849;DHT22;4963;51.444;6.528;2023-02-11T04:02:29;6.20;99.90
9849;DHT22;4963;51.444;6.528;2023-02-11T04:04:57;6.20;99.90
9849;DHT22;4963;51.444;6.528;2023-02-11T04:07:25;6.20;99.90
9849;DHT22;4963;51.444;6.528;2023-02-11T04:09:52;6.30;99.90
9849;DHT22;4963;51.444;6.528;2023-02-11T04:12:19;6.10;99.90
9849;DHT22;4963;51.444;6.528;2023-02-11T04:14:46;6.10;99.90
9849;DHT22;4963;51.444;6.528;2023-02-11T04:17:13;6.20;99.90
9849;DHT22;4963;51.444;6.528;2023-02-11T04:19:40;6.20;99.90
9849;DHT22;4963;51.444;6.528;2023-02-11T04:22:07;6.20;99.90
9849;DHT22;4963;51.444;6.528;2023-02-11T04:24:35;6.20;99.90
9849;DHT22;4963;51.444;6.528;2023-02-11T04:27:02;6.20;99.90
9849;DHT22;4963;51.444;6.528;2023-02-11T04:29:29;6.20;99.90
9849;DHT22;4963;51.444;6.528;2023-02-11T04:31:56;6.20;99.90
9849;DHT22;4963;51.444;6.528;2023-02-11T04:34:23;6.10;99.90
9849;DHT22;4963;51.444;6.528;2023-02-11T04:36:50;6.20;99.90
9849;DHT22;4963;51.444;6.528;2023-02-11T04:39:17;6.20;99.90
9849;DHT22;4963;51.444;6.528;2023-02-11T04:41:45;6.20;99.90
9849;DHT22;4963;51.444;6.528;2023-02-11T04:44:12;6.20;99.90
9849;DHT22;4963;51.444;6.528;2023-02-11T04:46:39;6.10;99.90
9849;DHT22;4963;51.444;6.528;2023-02-11T04:49:06;6.10;99.90
9849;DHT22;4963;51.444;6.528;2023-02-11T04:51:33;6.10;99.90
9849;DHT22;4963;51.444;6.528;2023-02-11T04:53:59;6.10;99.90
9849;DHT22;4963;51.444;6.528;2023-02-11T04:56:26;6.10;99.90
9849;DHT22;4963;51.444;6.528;2023-02-11T04:58:54;6.20;99.90
9849;DHT22;4963;51.444;6.528;2023-02-11T05:01:21;6.10;99.90
9849;DHT22;4963;51.444;6.528;2023-02-11T05:03:48;6.50;99.90
9849;DHT22;4963;51.444;6.528;2023-02-11T05:06:16;6.10;99.90
9849;DHT22;4963;51.444;6.528;2023-02-11T05:08:42;6.10;99.90
9849;DHT22;4963;51.444;6.528;2023-02-11T05:11:14;6.10;99.90
9849;DHT22;4963;51.444;6.528;2023-02-11T05:13:41;6.20;99.90
9849;DHT22;4963;51.444;6.528;2023-02-11T05:16:10;6.20;99.90
9849;DHT22;4963;51.444;6.528;2023-02-11T05:18:37;6.20;99.90
9849;DHT22;4963;51.444;6.528;2023-02-11T05:21:06;6.10;99.90
9849;DHT22;4963;51.444;6.528;2023-02-11T05:23:33;6.10;99.90
9849;DHT22;4963;51.444;6.528;2023-02-11T05:26:00;6.20;99.90
9849;DHT22;4963;51.444;6.528;2023-02-11T05:28:27;5.70;99.90
9849;DHT22;4963;51.444;6.528;2023-02-11T05:30:54;6.00;99.90
9849;DHT22;4963;51.444;6.528;2023-02-11T05:33:23;6.10;99.90
9849;DHT22;4963;51.444;6.528;2023-02-11T05:35:50;6.10;99.90
9849;DHT22;4963;51.444;6.528;2023-02-11T05:38:17;6.10;99.90
9849;DHT22;4963;51.444;6.528;2023-02-11T05:40:43;6.10;99.90
9849;DHT22;4963;51.444;6.528;2023-02-11T05:43:10;6.00;99.90
9849;DHT22;4963;51.444;6.528;2023-02-11T05:45:37;6.00;99.90
9849;DHT22;4963;51.444;6.528;2023-02-11T05:48:04;6.00;99.90
9849;DHT22;4963;51.444;6.528;2023-02-11T05:50:32;6.10;99.90
9849;DHT22;4963;51.444;6.528;2023-02-11T05:52:59;6.10;99.90
9849;DHT22;4963;51.444;6.528;2023-02-11T05:55:26;6.00;99.90
9849;DHT22;4963;51.444;6.528;2023-02-11T05:57:53;6.10;99.90
9849;DHT22;4963;51.444;6.528;2023-02-11T06:00:20;6.10;99.90
9849;DHT22;4963;51.444;6.528;2023-02-11T06:02:47;6.10;99.90
9849;DHT22;4963;51.444;6.528;2023-02-11T06:05:13;5.90;99.90
9849;DHT22;4963;51.444;6.528;2023-02-11T06:07:42;6.20;99.90
9849;DHT22;4963;51.444;6.528;2023-02-11T06:10:09;6.10;99.90
9849;DHT22;4963;51.444;6.528;2023-02-11T06:12:37;6.10;99.90
9849;DHT22;4963;51.444;6.528;2023-02-11T06:15:05;6.10;99.90
9849;DHT22;4963;51.444;6.528;2023-02-11T06:17:32;6.10;99.90
9849;DHT22;4963;51.444;6.528;2023-02-11T06:20:02;6.10;99.90
9849;DHT22;4963;51.444;6.528;2023-02-11T06:22:29;6.10;99.90
9849;DHT22;4963;51.444;6.528;2023-02-11T06:24:57;6.10;99.90
9849;DHT22;4963;51.444;6.528;2023-02-11T06:27:24;6.10;99.90
9849;DHT22;4963;51.444;6.528;2023-02-11T06:29:51;6.10;99.90
9849;DHT22;4963;51.444;6.528;2023-02-11T06:32:18;6.10;99.90
9849;DHT22;4963;51.444;6.528;2023-02-11T06:34:45;6.10;99.90
9849;DHT22;4963;51.444;6.528;2023-02-11T06:37:12;5.90;99.90
9849;DHT22;4963;51.444;6.528;2023-02-11T06:39:39;6.10;99.90
9849;DHT22;4963;51.444;6.528;2023-02-11T06:42:08;6.10;99.90
9849;DHT22;4963;51.444;6.528;2023-02-11T06:44:35;6.10;99.90
9849;DHT22;4963;51.444;6.528;2023-02-11T06:47:02;6.20;99.90
9849;DHT22;4963;51.444;6.528;2023-02-11T06:49:29;6.20;99.90
9849;DHT22;4963;51.444;6.528;2023-02-11T06:51:56;6.10;99.90
9849;DHT22;4963;51.444;6.528;2023-02-11T06:54:23;5.90;99.90
9849;DHT22;4963;51.444;6.528;2023-02-11T06:56:49;6.20;99.90
9849;DHT22;4963;51.444;6.528;2023-02-11T06:59:19;6.10;99.90
9849;DHT22;4963;51.444;6.528;2023-02-11T07:01:46;6.50;99.90
9849;DHT22;4963;51.444;6.528;2023-02-11T07:04:13;6.10;99.90
9849;DHT22;4963;51.444;6.528;2023-02-11T07:06:40;6.30;99.90
9849;DHT22;4963;51.444;6.528;2023-02-11T07:09:07;6.20;99.90
9849;DHT22;4963;51.444;6.528;2023-02-11T07:11:34;6.20;99.90
9849;DHT22;4963;51.444;6.528;2023-02-11T07:14:02;6.20;99.90
9849;DHT22;4963;51.444;6.528;2023-02-11T07:16:31;6.10;99.90
9849;DHT22;4963;51.444;6.528;2023-02-11T07:18:58;6.20;99.90
9849;DHT22;4963;51.444;6.528;2023-02-11T07:21:25;6.20;99.90
9849;DHT22;4963;51.444;6.528;2023-02-11T07:23:53;6.10;99.90
9849;DHT22;4963;51.444;6.528;2023-02-11T07:26:22;6.20;99.90
9849;DHT22;4963;51.444;6.528;2023-02-11T07:28:50;6.60;99.90
9849;DHT22;4963;51.444;6.528;2023-02-11T07:31:19;6.30;99.90
9849;DHT22;4963;51.444;6.528;2023-02-11T07:33:47;6.30;99.90
9849;DHT22;4963;51.444;6.528;2023-02-11T07:36:15;6.30;99.90
9849;DHT22;4963;51.444;6.528;2023-02-11T07:38:42;6.30;99.90
9849;DHT22;4963;51.444;6.528;2023-02-11T07:41:11;6.30;99.90
9849;DHT22;4963;51.444;6.528;2023-02-11T07:43:38;6.30;99.90
9849;DHT22;4963;51.444;6.528;2023-02-11T07:46:07;6.30;99.90
9849;DHT22;4963;51.444;6.528;2023-02-11T07:48:35;6.20;99.90
9849;DHT22;4963;51.444;6.528;2023-02-11T07:51:07;6.20;99.90
9849;DHT22;4963;51.444;6.528;2023-02-11T07:53:35;6.30;99.90
9849;DHT22;4963;51.444;6.528;2023-02-11T07:56:02;6.50;99.90
9849;DHT22;4963;51.444;6.528;2023-02-11T07:58:29;6.30;99.90
9849;DHT22;4963;51.444;6.528;2023-02-11T08:01:00;6.70;99.90
9849;DHT22;4963;51.444;6.528;2023-02-11T08:03:26;6.30;99.90
9849;DHT22;4963;51.444;6.528;2023-02-11T08:05:53;6.40;99.90
9849;DHT22;4963;51.444;6.528;2023-02-11T08:08:21;6.30;99.90
9849;DHT22;4963;51.444;6.528;2023-02-11T08:10:48;6.30;99.90
9849;DHT22;4963;51.444;6.528;2023-02-11T08:13:15;6.40;99.90
9849;DHT22;4963;51.444;6.528;2023-02-11T08:15:42;6.60;99.90
9849;DHT22;4963;51.444;6.528;2023-02-11T08:18:09;6.40;99.90
9849;DHT22;4963;51.444;6.528;2023-02-11T08:20:36;6.40;99.90
9849;DHT22;4963;51.444;6.528;2023-02-11T08:23:04;6.40;99.90
9849;DHT22;4963;51.444;6.528;2023-02-11T08:25:32;6.50;99.90
9849;DHT22;4963;51.444;6.528;2023-02-11T08:27:59;6.30;99.90
9849;DHT22;4963;51.444;6.528;2023-02-11T08:30:26;6.50;99.90
9849;DHT22;4963;51.444;6.528;2023-02-11T08:32:53;6.50;99.90
9849;DHT22;4963;51.444;6.528;2023-02-11T08:35:20;6.60;99.90
9849;DHT22;4963;51.444;6.528;2023-02-11T08:37:47;6.50;99.90
9849;DHT22;4963;51.444;6.528;2023-02-11T08:40:14;6.80;99.90
9849;DHT22;4963;51.444;6.528;2023-02-11T08:42:42;6.50;99.90
9849;DHT22;4963;51.444;6.528;2023-02-11T08:45:09;6.60;99.90
9849;DHT22;4963;51.444;6.528;2023-02-11T08:47:37;6.40;99.90
9849;DHT22;4963;51.444;6.528;2023-02-11T08:50:04;6.70;99.90
9849;DHT22;4963;51.444;6.528;2023-02-11T08:52:32;6.70;99.90
9849;DHT22;4963;51.444;6.528;2023-02-11T08:54:58;7.00;99.90
9849;DHT22;4963;51.444;6.528;2023-02-11T08:57:25;6.80;99.90
9849;DHT22;4963;51.444;6.528;2023-02-11T08:59:53;6.80;99.90
9849;DHT22;4963;51.444;6.528;2023-02-11T09:02:20;6.80;99.90
9849;DHT22;4963;51.444;6.528;2023-02-11T09:04:47;6.80;99.90
9849;DHT22;4963;51.444;6.528;2023-02-11T09:07:14;6.80;99.90
9849;DHT22;4963;51.444;6.528;2023-02-11T09:09:41;6.60;99.90
9849;DHT22;4963;51.444;6.528;2023-02-11T09:12:07;6.80;99.90
9849;DHT22;4963;51.444;6.528;2023-02-11T09:14:34;6.90;99.90
9849;DHT22;4963;51.444;6.528;2023-02-11T09:17:04;6.90;99.90
9849;DHT22;4963;51.444;6.528;2023-02-11T09:19:31;7.00;99.90
9849;DHT22;4963;51.444;6.528;2023-02-11T09:21:58;7.00;99.90
9849;DHT22;4963;51.444;6.528;2023-02-11T09:24:25;7.00;99.90
9849;DHT22;4963;51.444;6.528;2023-02-11T09:26:52;7.20;99.90
9849;DHT22;4963;51.444;6.528;2023-02-11T09:29:18;7.10;99.90
9849;DHT22;4963;51.444;6.528;2023-02-11T09:31:45;7.00;99.90
9849;DHT22;4963;51.444;6.528;2023-02-11T09:34:13;7.00;99.90
9849;DHT22;4963;51.444;6.528;2023-02-11T09:36:41;7.00;99.90
9849;DHT22;4963;51.444;6.528;2023-02-11T09:39:10;7.20;99.90
9849;DHT22;4963;51.444;6.528;2023-02-11T09:41:46;7.10;99.90
9849;DHT22;4963;51.444;6.528;2023-02-11T09:44:19;7.10;99.90
9849;DHT22;4963;51.444;6.528;2023-02-11T09:46:52;7.50;99.90
9849;DHT22;4963;51.444;6.528;2023-02-11T09:49:25;7.10;99.90
9849;DHT22;4963;51.444;6.528;2023-02-11T09:52:00;7.20;99.90
9849;DHT22;4963;51.444;6.528;2023-02-11T09:54:33;7.20;99.90
9849;DHT22;4963;51.444;6.528;2023-02-11T09:57:00;7.20;99.90
9849;DHT22;4963;51.444;6.528;2023-02-11T09:59:27;7.30;99.90
9849;DHT22;4963;51.444;6.528;2023-02-11T10:01:58;7.30;99.90
9849;DHT22;4963;51.444;6.528;2023-02-11T10:04:43;7.30;99.90
9849;DHT22;4963;51.444;6.528;2023-02-11T10:07:20;7.20;99.90
9849;DHT22;4963;51.444;6.528;2023-02-11T10:09:59;7.40;99.90
9849;DHT22;4963;51.444;6.528;2023-02-11T10:12:57;7.20;99.90
9849;DHT22;4963;51.444;6.528;2023-02-11T10:15:35;7.20;99.90
9849;DHT22;4963;51.444;6.528;2023-02-11T10:18:26;7.30;99.90
9849;DHT22;4963;51.444;6.528;2023-02-11T10:21:06;7.20;99.90
9849;DHT22;4963;51.444;6.528;2023-02-11T10:23:40;7.20;99.90
9849;DHT22;4963;51.444;6.528;2023-02-11T10:26:11;7.30;99.90
9849;DHT22;4963;51.444;6.528;2023-02-11T10:28:38;7.30;99.90
9849;DHT22;4963;51.444;6.528;2023-02-11T10:31:09;7.40;99.90
9849;DHT22;4963;51.444;6.528;2023-02-11T10:33:43;7.30;99.90
9849;DHT22;4963;51.444;6.528;2023-02-11T10:36:15;7.30;99.90
9849;DHT22;4963;51.444;6.528;2023-02-11T10:38:42;7.40;99.90
9849;DHT22;4963;51.444;6.528;2023-02-11T10:41:09;7.30;99.90
9849;DHT22;4963;51.444;6.528;2023-02-11T10:43:40;7.50;99.90
9849;DHT22;4963;51.444;6.528;2023-02-11T10:46:13;7.40;99.90
9849;DHT22;4963;51.444;6.528;2023-02-11T10:48:43;7.40;99.90
9849;DHT22;4963;51.444;6.528;2023-02-11T10:51:21;7.30;99.90
9849;DHT22;4963;51.444;6.528;2023-02-11T10:53:49;7.50;99.90
9849;DHT22;4963;51.444;6.528;2023-02-11T10:56:22;7.50;99.90
9849;DHT22;4963;51.444;6.528;2023-02-11T10:58:57;7.60;99.90
9849;DHT22;4963;51.444;6.528;2023-02-11T11:01:40;7.60;99.90
9849;DHT22;4963;51.444;6.528;2023-02-11T11:04:32;7.60;99.90
9849;DHT22;4963;51.444;6.528;2023-02-11T11:07:11;7.60;99.90
9849;DHT22;4963;51.444;6.528;2023-02-11T11:09:44;7.80;99.90
9849;DHT22;4963;51.444;6.528;2023-02-11T11:12:24;7.70;99.90
9849;DHT22;4963;51.444;6.528;2023-02-11T11:14:53;7.60;99.90
9849;DHT22;4963;51.444;6.528;2023-02-11T11:17:20;7.60;99.90
9849;DHT22;4963;51.444;6.528;2023-02-11T11:19:47;7.70;99.90
9849;DHT22;4963;51.444;6.528;2023-02-11T11:22:21;7.60;99.90
9849;DHT22;4963;51.444;6.528;2023-02-11T11:24:48;7.70;99.90
9849;DHT22;4963;51.444;6.528;2023-02-11T11:27:22;7.70;99.90
9849;DHT22;4963;51.444;6.528;2023-02-11T11:29:51;7.80;99.90
9849;DHT22;4963;51.444;6.528;2023-02-11T11:32:21;7.80;99.90
9849;DHT22;4963;51.444;6.528;2023-02-11T11:34:51;8.10;99.90
9849;DHT22;4963;51.444;6.528;2023-02-11T11:37:25;7.80;99.90
9849;DHT22;4963;51.444;6.528;2023-02-11T11:39:56;7.90;99.90
9849;DHT22;4963;51.444;6.528;2023-02-11T11:42:26;8.30;99.90
9849;DHT22;4963;51.444;6.528;2023-02-11T11:44:58;7.80;99.90
9849;DHT22;4963;51.444;6.528;2023-02-11T11:47:32;8.00;99.90
9849;DHT22;4963;51.444;6.528;2023-02-11T11:50:24;8.20;99.90
9849;DHT22;4963;51.444;6.528;2023-02-11T11:52:58;8.10;99.90
9849;DHT22;4963;51.444;6.528;2023-02-11T11:55:27;8.10;99.90
9849;DHT22;4963;51.444;6.528;2023-02-11T11:57:56;8.20;99.90
9849;DHT22;4963;51.444;6.528;2023-02-11T12:00:31;8.30;99.90
9849;DHT22;4963;51.444;6.528;2023-02-11T12:05:57;8.30;99.90
9849;DHT22;4963;51.444;6.528;2023-02-11T12:08:39;8.30;99.90
9849;DHT22;4963;51.444;6.528;2023-02-11T12:11:13;8.30;99.90
9849;DHT22;4963;51.444;6.528;2023-02-11T12:13:53;8.40;99.90
9849;DHT22;4963;51.444;6.528;2023-02-11T12:16:32;8.00;99.90
9849;DHT22;4963;51.444;6.528;2023-02-11T12:22:09;8.30;99.90
9849;DHT22;4963;51.444;6.528;2023-02-11T12:24:59;8.40;99.90
9849;DHT22;4963;51.444;6.528;2023-02-11T12:27:42;8.30;99.90
9849;DHT22;4963;51.444;6.528;2023-02-11T12:30:21;8.30;99.90
9849;DHT22;4963;51.444;6.528;2023-02-11T12:32:58;8.30;99.90
9849;DHT22;4963;51.444;6.528;2023-02-11T12:35:37;8.30;99.90
9849;DHT22;4963;51.444;6.528;2023-02-11T12:41:16;8.30;99.90
9849;DHT22;4963;51.444;6.528;2023-02-11T12:44:06;8.30;99.90
9849;DHT22;4963;51.444;6.528;2023-02-11T12:46:40;8.30;99.90
9849;DHT22;4963;51.444;6.528;2023-02-11T12:49:29;8.40;99.90
9849;DHT22;4963;51.444;6.528;2023-02-11T12:52:06;8.50;99.90
9849;DHT22;4963;51.444;6.528;2023-02-11T12:54:38;8.30;99.90
9849;DHT22;4963;51.444;6.528;2023-02-11T12:57:16;8.30;99.90
9849;DHT22;4963;51.444;6.528;2023-02-11T12:59:48;8.30;99.90
9849;DHT22;4963;51.444;6.528;2023-02-11T13:02:23;8.10;99.90
9849;DHT22;4963;51.444;6.528;2023-02-11T13:04:55;8.40;99.90
9849;DHT22;4963;51.444;6.528;2023-02-11T13:07:27;8.40;99.90
9849;DHT22;4963;51.444;6.528;2023-02-11T13:09:58;8.40;99.90
9849;DHT22;4963;51.444;6.528;2023-02-11T13:12:31;8.40;99.90
9849;DHT22;4963;51.444;6.528;2023-02-11T13:15:17;8.40;99.90
9849;DHT22;4963;51.444;6.528;2023-02-11T13:17:51;8.80;99.90
9849;DHT22;4963;51.444;6.528;2023-02-11T13:20:27;8.40;99.90
9849;DHT22;4963;51.444;6.528;2023-02-11T13:23:02;8.40;99.90
9849;DHT22;4963;51.444;6.528;2023-02-11T13:25:36;8.50;99.90
9849;DHT22;4963;51.444;6.528;2023-02-11T13:28:19;8.50;99.90
9849;DHT22;4963;51.444;6.528;2023-02-11T13:30:48;8.60;99.90
9849;DHT22;4963;51.444;6.528;2023-02-11T13:33:34;8.60;99.90
9849;DHT22;4963;51.444;6.528;2023-02-11T13:36:28;8.60;99.90
9849;DHT22;4963;51.444;6.528;2023-02-11T13:39:02;8.70;99.90
9849;DHT22;4963;51.444;6.528;2023-02-11T13:41:33;8.70;99.90
9849;DHT22;4963;51.444;6.528;2023-02-11T13:44:18;8.70;99.90
9849;DHT22;4963;51.444;6.528;2023-02-11T13:46:53;8.80;99.90
9849;DHT22;4963;51.444;6.528;2023-02-11T13:49:25;8.90;99.90
9849;DHT22;4963;51.444;6.528;2023-02-11T13:51:53;8.90;99.90
9849;DHT22;4963;51.444;6.528;2023-02-11T13:54:25;8.90;99.90
9849;DHT22;4963;51.444;6.528;2023-02-11T13:57:15;9.00;99.90
9849;DHT22;4963;51.444;6.528;2023-02-11T13:59:50;9.00;99.90
9849;DHT22;4963;51.444;6.528;2023-02-11T14:02:23;9.10;99.90
9849;DHT22;4963;51.444;6.528;2023-02-11T14:05:29;9.10;99.90
9849;DHT22;4963;51.444;6.528;2023-02-11T14:08:22;9.20;99.90
9849;DHT22;4963;51.444;6.528;2023-02-11T14:11:09;9.20;99.90
9849;DHT22;4963;51.444;6.528;2023-02-11T14:14:16;9.30;99.90
9849;DHT22;4963;51.444;6.528;2023-02-11T14:19:48;9.30;99.90
9849;DHT22;4963;51.444;6.528;2023-02-11T14:22:18;9.40;99.90
9849;DHT22;4963;51.444;6.528;2023-02-11T14:24:51;9.60;99.90
9849;DHT22;4963;51.444;6.528;2023-02-11T14:27:30;9.30;99.90
9849;DHT22;4963;51.444;6.528;2023-02-11T14:30:19;9.30;99.90
9849;DHT22;4963;51.444;6.528;2023-02-11T14:35:57;9.20;99.90
9849;DHT22;4963;51.444;6.528;2023-02-11T14:38:33;9.20;99.90
9849;DHT22;4963;51.444;6.528;2023-02-11T14:41:10;9.20;99.90
9849;DHT22;4963;51.444;6.528;2023-02-11T14:43:42;9.10;99.90
9849;DHT22;4963;51.444;6.528;2023-02-11T14:46:12;9.00;99.90
9849;DHT22;4963;51.444;6.528;2023-02-11T14:48:44;9.10;99.90
9849;DHT22;4963;51.444;6.528;2023-02-11T14:51:17;9.10;99.90
9849;DHT22;4963;51.444;6.528;2023-02-11T14:53:49;9.20;99.90
9849;DHT22;4963;51.444;6.528;2023-02-11T14:56:18;9.10;99.90
9849;DHT22;4963;51.444;6.528;2023-02-11T14:58:47;9.30;99.90
9849;DHT22;4963;51.444;6.528;2023-02-11T15:01:25;9.20;99.90
9849;DHT22;4963;51.444;6.528;2023-02-11T15:03:52;9.30;99.90
9849;DHT22;4963;51.444;6.528;2023-02-11T15:06:24;9.30;99.90
9849;DHT22;4963;51.444;6.528;2023-02-11T15:08:54;9.30;99.90
9849;DHT22;4963;51.444;6.528;2023-02-11T15:11:26;9.30;99.90
9849;DHT22;4963;51.444;6.528;2023-02-11T15:13:55;9.30;99.90
9849;DHT22;4963;51.444;6.528;2023-02-11T15:16:24;9.30;99.90
9849;DHT22;4963;51.444;6.528;2023-02-11T15:18:54;9.30;99.90
9849;DHT22;4963;51.444;6.528;2023-02-11T15:21:25;9.30;99.90
9849;DHT22;4963;51.444;6.528;2023-02-11T15:23:58;9.30;99.90
9849;DHT22;4963;51.444;6.528;2023-02-11T15:26:26;9.20;99.90
9849;DHT22;4963;51.444;6.528;2023-02-11T15:28:53;9.30;99.90
9849;DHT22;4963;51.444;6.528;2023-02-11T15:31:22;9.30;99.90
9849;DHT22;4963;51.444;6.528;2023-02-11T15:33:49;9.40;99.90
9849;DHT22;4963;51.444;6.528;2023-02-11T15:36:18;9.60;99.90
9849;DHT22;4963;51.444;6.528;2023-02-11T15:39:16;9.20;99.90
9849;DHT22;4963;51.444;6.528;2023-02-11T15:41:44;9.20;99.90
9849;DHT22;4963;51.444;6.528;2023-02-11T15:44:26;9.10;99.90
9849;DHT22;4963;51.444;6.528;2023-02-11T15:46:53;9.20;99.90
9849;DHT22;4963;51.444;6.528;2023-02-11T15:49:20;9.10;99.90
9849;DHT22;4963;51.444;6.528;2023-02-11T15:51:48;9.20;99.90
9849;DHT22;4963;51.444;6.528;2023-02-11T15:54:20;9.10;99.90
9849;DHT22;4963;51.444;6.528;2023-02-11T15:56:48;9.20;99.90
9849;DHT22;4963;51.444;6.528;2023-02-11T15:59:18;9.00;99.90
9849;DHT22;4963;51.444;6.528;2023-02-11T16:01:46;9.10;99.90
9849;DHT22;4963;51.444;6.528;2023-02-11T16:04:16;9.10;99.90
9849;DHT22;4963;51.444;6.528;2023-02-11T16:06:43;9.00;99.90
9849;DHT22;4963;51.444;6.528;2023-02-11T16:09:30;9.10;99.90
9849;DHT22;4963;51.444;6.528;2023-02-11T16:12:00;9.10;99.90
9849;DHT22;4963;51.444;6.528;2023-02-11T16:14:31;9.00;99.90
9849;DHT22;4963;51.444;6.528;2023-02-11T16:17:01;9.10;99.90
9849;DHT22;4963;51.444;6.528;2023-02-11T16:19:29;8.90;99.90
9849;DHT22;4963;51.444;6.528;2023-02-11T16:22:00;8.90;99.90
9849;DHT22;4963;51.444;6.528;2023-02-11T16:24:31;9.00;99.90
9849;DHT22;4963;51.444;6.528;2023-02-11T16:29:58;8.90;99.90
9849;DHT22;4963;51.444;6.528;2023-02-11T16:32:26;9.10;99.90
9849;DHT22;4963;51.444;6.528;2023-02-11T16:34:55;8.90;99.90
9849;DHT22;4963;51.444;6.528;2023-02-11T16:37:23;8.80;99.90
9849;DHT22;4963;51.444;6.528;2023-02-11T16:39:54;8.70;99.90
9849;DHT22;4963;51.444;6.528;2023-02-11T16:42:21;8.80;99.90
9849;DHT22;4963;51.444;6.528;2023-02-11T16:44:52;8.80;99.90
9849;DHT22;4963;51.444;6.528;2023-02-11T16:47:22;8.70;99.90
9849;DHT22;4963;51.444;6.528;2023-02-11T16:49:49;8.70;99.90
9849;DHT22;4963;51.444;6.528;2023-02-11T16:52:17;8.80;99.90
9849;DHT22;4963;51.444;6.528;2023-02-11T16:54:44;8.50;99.90
9849;DHT22;4963;51.444;6.528;2023-02-11T16:57:14;8.40;99.90
9849;DHT22;4963;51.444;6.528;2023-02-11T16:59:41;8.40;99.90
9849;DHT22;4963;51.444;6.528;2023-02-11T17:02:21;8.40;99.90
9849;DHT22;4963;51.444;6.528;2023-02-11T17:04:57;8.40;99.90
9849;DHT22;4963;51.444;6.528;2023-02-11T17:07:24;8.50;99.90
9849;DHT22;4963;51.444;6.528;2023-02-11T17:09:51;8.40;99.90